• Join FlightAware (Why Join?)
  • Login
  • US Flag 
08:55PM EDT


 

Airport Tracker/Info


-or-


 

Live Flight TrackerFlight Track Log ✈ ACA291 ✈ 06-Jul-2014 ✈ CYVR - CYXY

Flight Track Log - Related Links

Times and Time Zones

All times are in EDT time to prevent confusion due to time zone crossing. See the ACA291 flight status page for this flight to view local times or setup timezone preferences in your user account.

Time Position Orientation Groundspeed Altitude Reporting Facility
EDT Latitude Longitude Course Direction KTS MPH feet Rate Location/Type
11:28PM 49.1667 -123.2167 338° Northwest 150 173 1,100  Level Vancouver Center
11:29PM 49.1833 -123.2833 291° West 210 242 2,300 1,740 Climbing Vancouver Center
11:30PM 49.2167 -123.3667 302° West 240 276 4,600 2,460 Climbing Vancouver Center
11:31PM 49.4778 -123.4622 333° Northwest  Level FlightAware Approximate
11:31PM 49.2833 -123.3667 360° North 270 311 7,300  Level Vancouver Center
11:32PM 49.5772 -123.5440 338° Northwest  Level FlightAware Approximate
11:32PM 49.3667 -123.3333 15° North 290 334 10,100  Level Vancouver Center
11:33PM 49.4667 -123.3167 North 320 368 11,600 1,920 Climbing Vancouver Center
11:34PM 49.5500 -123.2833 15° North 350 403 14,000 2,280 Climbing Vancouver Center
11:35PM 49.6500 -123.2500 12° North 360 414 16,200 1,860 Climbing Vancouver Center
11:36PM 49.7500 -123.2500 360° North 370 426 17,800 1,800 Climbing Vancouver Center
11:37PM 49.8500 -123.3000 342° North 370 426 19,800 1,860 Climbing Vancouver Center
11:38PM 49.9500 -123.3500 342° North 380 437 21,600 1,680 Climbing Vancouver Center
11:39PM 50.0500 -123.4333 332° Northwest 390 449 23,200 1,500 Climbing Vancouver Center
11:40PM 50.1500 -123.5167 332° Northwest 400 460 24,700 1,380 Climbing Vancouver Center
11:41PM 50.2500 -123.5833 337° Northwest 400 460 26,000 1,260 Climbing Vancouver Center
11:42PM 50.3500 -123.6667 332° Northwest 410 472 27,300 1,800 Climbing Vancouver Center
11:43PM 50.4500 -123.7500 332° Northwest 400 460 29,600 1,320 Climbing Vancouver Center
11:44PM 50.5500 -123.8167 337° Northwest 390 449 30,000 180 Climbing Vancouver Center
11:45PM 50.6500 -123.9000 332° Northwest 380 437 30,000 300 Level Vancouver Center
11:46PM 50.7333 -123.9500 339° North 390 449 30,700 1,020 Climbing Vancouver Center
11:47PM 50.8333 -124.0333 332° Northwest 390 449 32,100 1,320 Climbing Vancouver Center
11:48PM 50.9333 -124.1167 332° Northwest 370 426 33,400 900 Climbing Vancouver Center
11:49PM 51.0167 -124.1667 339° North 360 414 34,000 300 Climbing Vancouver Center
11:50PM 51.1167 -124.2500 332° Northwest 370 426 34,000  Level Vancouver Center
11:51PM 51.2000 -124.3333 328° Northwest 370 426 34,000  Level Vancouver Center
11:52PM 51.3000 -124.4167 332° Northwest 380 437 34,000  Level Vancouver Center
11:53PM 51.3833 -124.4667 339° North 380 437 34,000  Level Vancouver Center
11:54PM 51.4833 -124.5500 333° Northwest 370 426 34,000  Level Vancouver Center
11:55PM 51.5833 -124.6333 333° Northwest 380 437 34,000  Level Vancouver Center
11:56PM 51.6833 -124.7167 333° Northwest 380 437 34,000  Level Vancouver Center
11:57PM 51.7667 -124.7667 340° North 370 426 34,000  Level Vancouver Center
11:58PM 51.8667 -124.8500 333° Northwest 380 437 34,000  Level Vancouver Center
11:59PM 51.9500 -124.9333 328° Northwest 390 449 34,000  Level Vancouver Center
12:00AM 52.0500 -125.0167 333° Northwest 390 449 34,000  Level Vancouver Center
12:01AM 52.1500 -125.1000 333° Northwest 390 449 34,000  Level Vancouver Center
12:02AM 52.2500 -125.1833 333° Northwest 390 449 34,000  Level Vancouver Center
12:03AM 52.3500 -125.2500 338° Northwest 390 449 34,000  Level Vancouver Center
12:04AM 52.4500 -125.3333 333° Northwest 390 449 34,000  Level Vancouver Center
12:05AM 52.5500 -125.4167 333° Northwest 400 460 34,000  Level Vancouver Center
12:06AM 52.6500 -125.5000 333° Northwest 400 460 34,000  Level Vancouver Center
12:07AM 52.7500 -125.5833 333° Northwest 400 460 34,000  Level Vancouver Center
12:08AM 52.8500 -125.6833 329° Northwest 400 460 34,000  Level Vancouver Center
12:09AM 52.9500 -125.7667 333° Northwest 400 460 34,000  Level Vancouver Center
12:10AM 53.0500 -125.8500 333° Northwest 400 460 34,000  Level Vancouver Center
12:11AM 53.1500 -125.9333 333° Northwest 400 460 34,000  Level Vancouver Center
12:12AM 53.2333 -126.0333 324° Northwest 400 460 34,000  Level Vancouver Center
12:13AM 53.3167 -126.1167 329° Northwest 400 460 34,000  Level Vancouver Center
12:14AM 53.4333 -126.2000 337° Northwest 400 460 34,000  Level Vancouver Center
12:15AM 53.5167 -126.2667 335° Northwest 400 460 34,000  Level Vancouver Center
12:16AM 53.6333 -126.3667 333° Northwest 400 460 34,000  Level Vancouver Center
12:17AM 53.7333 -126.4500 334° Northwest 400 460 34,000  Level Vancouver Center
12:18AM 53.8333 -126.5333 334° Northwest 400 460 34,000  Level Vancouver Center
12:19AM 53.9167 -126.6333 325° Northwest 400 460 34,000  Level Vancouver Center
12:20AM 54.0167 -126.7167 334° Northwest 400 460 34,000  Level Vancouver Center
12:21AM 54.1167 -126.8167 330° Northwest 400 460 34,000  Level Vancouver Center
12:22AM 54.2000 -126.9000 330° Northwest 400 460 34,000  Level Vancouver Center
12:23AM 54.3000 -127.0000 330° Northwest 390 449 34,000  Level Vancouver Center
12:24AM 54.4000 -127.1000 330° Northwest 390 449 34,000  Level Vancouver Center
12:25AM 54.5000 -127.1500 344° North 390 449 34,000  Level Vancouver Center
12:26AM 54.6000 -127.2500 330° Northwest 390 449 34,000  Level Vancouver Center
12:27AM 54.6833 -127.3500 325° Northwest 390 449 34,000  Level Vancouver Center
12:29AM 54.8833 -127.5333 332° Northwest 400 460 34,000  Level Vancouver Center
12:30AM 54.9833 -127.6333 330° Northwest 390 449 34,000  Level Vancouver Center
12:31AM 55.0833 -127.7333 330° Northwest 400 460 34,000  Level Vancouver Center
12:32AM 55.1667 -127.8000 335° Northwest 410 472 34,000  Level Vancouver Center
12:33AM 55.2500 -127.9000 331° Northwest 390 449 34,000  Level Vancouver Center
12:34AM 55.2734 -127.9031 331° Northwest  Level FlightAware Approximate
12:34AM 55.3667 -128.0000 334° Northwest 390 449 34,000  Level Vancouver Center
12:35AM 55.4500 -128.0833 330° Northwest 390 449 34,000  Level Vancouver Center
12:36AM 55.5500 -128.1833 331° Northwest 390 449 34,000  Level Vancouver Center
12:37AM 55.6500 -128.2833 331° Northwest 390 449 34,000  Level Vancouver Center
12:38AM 55.7500 -128.3833 331° Northwest 400 460 34,000  Level Vancouver Center
12:39AM 55.8333 -128.4833 326° Northwest 390 449 34,000  Level Vancouver Center
12:40AM 55.9333 -128.5833 331° Northwest 390 449 34,000  Level Vancouver Center
12:41AM 56.0167 -128.6833 326° Northwest 390 449 34,000  Level Vancouver Center
12:42AM 56.1167 -128.7833 331° Northwest 400 460 34,000  Level Vancouver Center
12:43AM 56.2167 -128.8667 335° Northwest 430 495 34,000  Level Vancouver Center
12:44AM 56.3167 -128.9667 331° Northwest 410 472 34,000  Level Vancouver Center
12:45AM 56.4000 -129.0667 326° Northwest 390 449 34,000  Level Vancouver Center
12:46AM 56.4833 -129.1667 326° Northwest 400 460 34,000  Level Vancouver Center
12:47AM 56.6000 -129.2833 331° Northwest 400 460 34,000  Level Vancouver Center
12:48AM 56.6833 -129.3833 327° Northwest 390 449 34,000  Level Vancouver Center
12:49AM 56.7667 -129.4833 327° Northwest 390 449 34,000  Level Vancouver Center
12:50AM 56.8667 -129.5833 331° Northwest 390 449 34,000  Level Vancouver Center
12:51AM 56.9667 -129.7000 328° Northwest 390 449 34,000  Level Vancouver Center
12:52AM 57.0333 -129.8333 313° West 390 449 34,000  Level Vancouver Center
12:53AM 57.1167 -129.9333 327° Northwest 390 449 34,000  Level Vancouver Center
12:55AM 57.2163 -130.0644 325° Northwest  Level FlightAware Approximate
01:02AM 57.8109 -130.8660 324° Northwest  Level FlightAware Approximate
01:03AM 57.8954 -130.9827 324° Northwest  Level FlightAware Approximate
01:04AM 57.9798 -131.0999 324° Northwest  Level FlightAware Approximate
01:05AM 58.0642 -131.2177 324° Northwest  Level FlightAware Approximate
01:06AM 58.1483 -131.3360 323° Northwest  Level FlightAware Approximate
01:07AM 58.2324 -131.4549 323° Northwest  Level FlightAware Approximate
01:08AM 58.3164 -131.5744 323° Northwest  Level FlightAware Approximate
01:09AM 58.4003 -131.6944 323° Northwest  Level FlightAware Approximate
01:10AM 58.4841 -131.8150 323° Northwest  Level FlightAware Approximate
01:11AM 58.5677 -131.9362 323° Northwest  Level FlightAware Approximate
01:12AM 58.6512 -132.0579 323° Northwest  Level FlightAware Approximate
01:13AM 58.7346 -132.1803 323° Northwest  Level FlightAware Approximate
01:14AM 58.8179 -132.3032 323° Northwest  Level FlightAware Approximate
01:15AM 58.9114 -132.3974 333° Northwest  Level FlightAware Approximate
01:16AM 59.0048 -132.4920 332° Northwest  Level FlightAware Approximate
01:17AM 59.0981 -132.5872 332° Northwest  Level FlightAware Approximate
01:18AM 59.1914 -132.6830 332° Northwest  Level FlightAware Approximate
01:19AM 59.2846 -132.7792 332° Northwest  Level FlightAware Approximate
01:20AM 59.3777 -132.8760 332° Northwest  Level FlightAware Approximate
01:21AM 59.4696 -132.9852 327° Northwest  Level FlightAware Approximate
01:22AM 59.5575 -133.0997 327° Northwest  Level FlightAware Approximate
01:23AM 59.6463 -133.2119 328° Northwest  Level FlightAware Approximate
01:24AM 59.7351 -133.3245 326° Northwest  Level FlightAware Approximate
01:25AM 59.8233 -133.4390 327° Northwest  Level FlightAware Approximate
01:26AM 59.9119 -133.5528 327° Northwest  Level FlightAware Approximate
01:27AM 60.0003 -133.6671 327° Northwest  Level FlightAware Approximate
01:28AM 60.0882 -133.7838 327° Northwest  Level FlightAware Approximate
01:29AM 60.1759 -133.9010 326° Northwest  Level FlightAware Approximate
01:30AM 60.2632 -134.0197 326° Northwest  Level FlightAware Approximate
01:31AM 60.3504 -134.1394 326° Northwest  Level FlightAware Approximate
01:32AM 60.4374 -134.2598 326° Northwest  Level FlightAware Approximate
01:33AM 60.5243 -134.3808 326° Northwest  Level FlightAware Approximate
01:34AM 60.6121 -134.4993 327° Northwest  Level FlightAware Approximate
01:35AM 60.7003 -134.6171 324° Northwest  Level FlightAware Approximate
01:36AM 60.7854 -134.7443 324° Northwest  Level FlightAware Approximate
01:37AM 60.8706 -134.8715 329° Northwest  Level FlightAware Approximate
01:38AM 60.9018 -134.9605 189° South  Level FlightAware Approximate
01:39AM 60.8000 -135.0111 198° South  Level FlightAware Approximate
01:40AM 60.7095 -135.0673 194° South  Level Estimated
01:41AM 60.7095 -135.0673 194° South  Level Estimated
01:42AM 60.7095 -135.0673 194° South  Level Estimated
01:43AM 60.7095 -135.0673 194° South  Level Estimated
01:44AM 60.7095 -135.0673 194° South  Level Estimated
01:45AM 60.7095 -135.0673 194° South  Level Estimated
01:46AM 60.7095 -135.0673 194° South  Level Estimated
01:47AM 60.7095 -135.0673 194° South  Level Estimated